Time;durP1;ratioP1;P1;durP2;ratioP2;P2;SDS_P1;SDS_P2;PMS_P1;PMS_P2;Temp;Humidity;BMP_temperature;BMP_pressure;BME280_temperature;BME280_humidity;BME280_pressure;Samples;Min_cycle;Max_cycle;Signal;HPM_P1;HPM_P2
2021/12/21 10:08:20;;;;;;;12.27;6.53;;;-3.00;99.90;;;;;;5134134;27;20272;-74
2021/12/21 10:10:50;;;;;;;14.83;8.00;;;-2.90;99.90;;;;;;5113432;28;20471;-75
2021/12/21 10:13:23;;;;;;;16.47;9.30;;;-2.90;99.90;;;;;;5131964;28;20430;-75
2021/12/21 10:15:54;;;;;;;14.70;9.13;;;-2.90;99.90;;;;;;5131964;28;20435;-75
2021/12/21 10:18:29;;;;;;;15.77;9.63;;;-2.90;99.90;;;;;;5131977;27;20389;-75
2021/12/21 10:20:57;;;;;;;17.47;9.53;;;-2.80;99.90;;;;;;5130537;28;20452;-75
2021/12/21 10:23:27;;;;;;;17.17;10.50;;;-2.70;99.90;;;;;;5131646;27;20509;-75
2021/12/21 10:26:02;;;;;;;15.10;8.63;;;-2.70;99.90;;;;;;5131628;27;20937;-75
2021/12/21 10:28:37;;;;;;;16.50;9.77;;;-2.70;99.90;;;;;;5132066;27;20459;-75
2021/12/21 10:31:26;;;;;;;17.67;10.10;;;-2.70;99.90;;;;;;5131477;27;20905;-76
2021/12/21 10:33:52;;;;;;;16.77;9.80;;;-2.70;99.90;;;;;;5130385;28;20404;-75
2021/12/21 10:36:18;;;;;;;19.30;9.53;;;-2.70;99.90;;;;;;5131478;27;20933;-75
2021/12/21 10:38:50;;;;;;;15.00;8.83;;;-2.60;99.90;;;;;;5130403;28;20500;-75
2021/12/21 10:41:22;;;;;;;14.57;8.97;;;-2.60;99.90;;;;;;5131499;27;20154;-76
2021/12/21 10:44:03;;;;;;;15.47;9.03;;;-2.60;99.90;;;;;;5130713;28;20405;-76
2021/12/21 10:46:30;;;;;;;15.23;9.07;;;-2.50;99.90;;;;;;5131264;27;20452;-75
2021/12/21 10:49:15;;;;;;;14.67;9.00;;;-2.50;99.90;;;;;;5130234;28;20411;-76
2021/12/21 10:52:20;;;;;;;13.83;8.93;;;-2.50;99.90;;;;;;5130159;28;20404;-76
2021/12/21 10:54:47;;;;;;;14.67;8.13;;;-2.50;99.90;;;;;;5088995;28;20505;-77
2021/12/21 10:57:17;;;;;;;16.73;10.27;;;-2.70;99.90;;;;;;5088503;28;20445;-76
2021/12/21 10:59:56;;;;;;;15.87;10.47;;;-2.60;99.90;;;;;;5110701;28;20899;-77
2021/12/21 11:02:29;;;;;;;16.57;9.40;;;-2.50;99.90;;;;;;5131196;27;20403;-76
2021/12/21 11:05:01;;;;;;;19.37;10.93;;;-2.40;99.90;;;;;;5130133;28;20937;-76
2021/12/21 11:09:57;;;;;;;18.57;10.20;;;-2.40;99.90;;;;;;5131449;27;20415;-76
2021/12/21 11:12:25;;;;;;;16.47;9.47;;;-2.40;99.90;;;;;;5129795;28;20408;-75
2021/12/21 11:14:53;;;;;;;14.90;8.93;;;-2.50;99.90;;;;;;5131087;27;20766;-76
2021/12/21 11:17:20;;;;;;;17.80;10.00;;;-2.50;99.90;;;;;;5130863;27;20943;-76
2021/12/21 11:19:46;;;;;;;13.27;9.13;;;-2.50;99.90;;;;;;5116797;28;20498;-76
2021/12/21 11:22:13;;;;;;;15.70;9.97;;;-2.40;99.90;;;;;;5115752;28;20444;-76
2021/12/21 11:24:39;;;;;;;15.13;8.97;;;-2.50;99.90;;;;;;5116436;28;20266;-75
2021/12/21 11:27:05;;;;;;;14.03;9.03;;;-2.70;99.90;;;;;;5117524;28;20548;-75
2021/12/21 11:29:32;;;;;;;15.13;9.50;;;-2.60;99.90;;;;;;5117248;28;20766;-76
2021/12/21 11:32:01;;;;;;;27.27;9.53;;;-2.50;99.90;;;;;;5115834;28;20840;-75
2021/12/21 11:34:32;;;;;;;13.63;8.80;;;-2.40;99.90;;;;;;5118096;28;21259;-76
2021/12/21 11:39:42;;;;;;;13.97;8.70;;;-2.50;99.90;;;;;;5117345;28;20775;-76
2021/12/21 11:42:16;;;;;;;15.07;9.37;;;-2.50;99.90;;;;;;5115426;28;20425;-76
2021/12/21 11:44:58;;;;;;;14.63;9.10;;;-2.40;99.90;;;;;;5113597;28;20221;-76
2021/12/21 11:48:06;;;;;;;16.53;9.57;;;-2.40;99.90;;;;;;5117172;28;20441;-76
2021/12/21 11:50:31;;;;;;;15.30;8.77;;;-2.30;99.90;;;;;;5053871;28;20408;-76
2021/12/21 11:53:06;;;;;;;19.43;10.03;;;-2.20;99.90;;;;;;5106964;28;20419;-76
2021/12/21 11:55:34;;;;;;;16.47;9.93;;;-2.10;99.90;;;;;;5116871;28;20235;-76
2021/12/21 11:58:12;;;;;;;16.23;10.10;;;-2.10;99.90;;;;;;5116514;28;20805;-76
2021/12/21 12:00:44;;;;;;;17.13;10.00;;;-2.10;99.90;;;;;;5114111;28;20401;-76
2021/12/21 12:03:13;;;;;;;14.20;9.77;;;-2.10;99.90;;;;;;5114191;28;20454;-76
2021/12/21 12:06:12;;;;;;;15.77;10.17;;;-1.90;99.90;;;;;;5115601;28;21162;-76
2021/12/21 12:09:00;;;;;;;17.70;9.37;;;-1.90;99.90;;;;;;5115221;28;20488;-76
2021/12/21 12:11:35;;;;;;;19.17;11.53;;;-2.00;99.90;;;;;;5115251;28;20404;-76
2021/12/21 12:14:08;;;;;;;12.90;9.43;;;-1.80;99.90;;;;;;5116130;28;20801;-76
2021/12/21 12:16:48;;;;;;;15.00;9.97;;;-1.80;99.90;;;;;;5115288;28;20436;-76
2021/12/21 12:19:20;;;;;;;14.43;9.70;;;-1.90;99.90;;;;;;5116511;28;20378;-76
2021/12/21 12:22:01;;;;;;;11.03;8.37;;;-1.80;99.90;;;;;;5116830;28;20393;-76
2021/12/21 12:24:36;;;;;;;13.60;8.73;;;-1.80;99.90;;;;;;5117222;28;20955;-76
2021/12/21 12:27:21;;;;;;;18.07;9.10;;;-1.70;99.90;;;;;;5117538;28;20466;-75
2021/12/21 12:29:50;;;;;;;16.87;9.53;;;-1.70;99.90;;;;;;5115251;28;20849;-76
2021/12/21 12:32:18;;;;;;;17.33;9.17;;;-1.60;99.90;;;;;;5115771;28;20416;-76
2021/12/21 12:34:44;;;;;;;13.83;9.90;;;-1.60;99.90;;;;;;5115960;28;20752;-76
2021/12/21 12:37:15;;;;;;;17.37;9.63;;;-1.60;99.90;;;;;;5116348;28;20473;-76
2021/12/21 12:39:44;;;;;;;15.23;10.37;;;-1.50;99.90;;;;;;5116019;28;20897;-75
2021/12/21 12:42:18;;;;;;;15.73;9.67;;;-1.70;99.90;;;;;;5115458;28;20409;-75
2021/12/21 12:44:45;;;;;;;20.93;10.67;;;-1.60;99.90;;;;;;5115853;28;20786;-76
2021/12/21 12:47:14;;;;;;;28.13;15.73;;;-1.60;99.90;;;;;;5114199;28;20586;-75
2021/12/21 12:49:54;;;;;;;16.23;10.03;;;-1.60;99.90;;;;;;5115669;28;20802;-76
2021/12/21 12:52:28;;;;;;;15.20;9.73;;;-1.50;99.90;;;;;;5115382;28;20420;-76
2021/12/21 12:54:55;;;;;;;14.07;9.20;;;-1.50;99.90;;;;;;5116021;28;20381;-76
2021/12/21 12:57:38;;;;;;;14.63;9.00;;;-1.50;99.90;;;;;;5116425;28;20429;-78
2021/12/21 13:00:25;;;;;;;14.10;8.57;;;-1.50;99.90;;;;;;5114526;28;20432;-76
2021/12/21 13:03:03;;;;;;;13.80;9.17;;;-1.40;99.90;;;;;;5114395;28;20925;-75
2021/12/21 13:05:34;;;;;;;13.50;8.87;;;-1.30;99.90;;;;;;5116678;28;20909;-76
2021/12/21 13:08:18;;;;;;;14.07;8.63;;;-1.40;99.90;;;;;;5113990;28;20468;-75
2021/12/21 13:10:49;;;;;;;15.03;9.90;;;-1.20;99.90;;;;;;5115308;28;20435;-76
2021/12/21 13:13:16;;;;;;;18.87;11.37;;;-1.20;99.90;;;;;;5115308;28;20401;-76
2021/12/21 13:15:47;;;;;;;13.13;10.03;;;-1.30;99.90;;;;;;5114049;28;20464;-76
2021/12/21 13:18:17;;;;;;;13.40;8.93;;;-1.30;99.90;;;;;;5113916;28;20413;-75
2021/12/21 13:20:45;;;;;;;15.50;8.83;;;-1.40;99.90;;;;;;5115123;28;20400;-75
2021/12/21 13:23:14;;;;;;;12.47;8.73;;;-1.50;99.90;;;;;;5114965;28;20913;-76
2021/12/21 13:25:51;;;;;;;14.83;8.30;;;-1.60;99.90;;;;;;5114988;28;20847;-76
2021/12/21 13:28:16;;;;;;;12.80;9.23;;;-1.80;99.90;;;;;;5113685;28;20455;-76
2021/12/21 13:30:50;;;;;;;15.60;9.73;;;-1.80;99.90;;;;;;5115238;28;20497;-76
2021/12/21 13:33:23;;;;;;;13.73;9.13;;;-1.80;99.90;;;;;;5115410;28;20156;-77
2021/12/21 13:35:51;;;;;;;15.17;9.27;;;-1.70;99.90;;;;;;5114879;28;20421;-76
2021/12/21 13:38:18;;;;;;;17.23;9.40;;;-1.60;99.90;;;;;;5115446;28;20854;-77
2021/12/21 13:40:56;;;;;;;14.83;9.07;;;-1.60;99.90;;;;;;5113574;28;20890;-75
2021/12/21 13:43:22;;;;;;;14.23;9.27;;;-1.60;99.90;;;;;;5114334;28;20393;-76
2021/12/21 13:46:00;;;;;;;16.57;9.27;;;-1.60;99.90;;;;;;5114591;28;20425;-76
2021/12/21 13:48:27;;;;;;;17.30;10.23;;;-1.60;99.90;;;;;;5113222;28;20178;-76
2021/12/21 13:50:52;;;;;;;16.43;9.70;;;-1.60;99.90;;;;;;5114099;28;20394;-76
2021/12/21 13:53:19;;;;;;;14.10;9.40;;;-1.60;99.90;;;;;;5112990;28;20405;-76
2021/12/21 13:55:51;;;;;;;18.57;9.93;;;-1.70;99.90;;;;;;5114119;28;20596;-75
2021/12/21 13:58:17;;;;;;;13.57;9.80;;;-1.80;99.90;;;;;;5114364;28;20389;-76
2021/12/21 14:00:53;;;;;;;16.47;9.10;;;-1.80;99.90;;;;;;5113215;28;20409;-76
2021/12/21 14:03:34;;;;;;;16.13;9.53;;;-1.70;99.90;;;;;;5114376;28;20155;-76
2021/12/21 14:06:12;;;;;;;13.80;9.47;;;-1.60;99.90;;;;;;5112443;28;20435;-76
2021/12/21 14:08:41;;;;;;;15.70;9.00;;;-1.40;99.90;;;;;;5112869;28;20583;-76
2021/12/21 14:11:08;;;;;;;12.73;8.83;;;-1.40;99.90;;;;;;5112668;28;20418;-75
2021/12/21 14:13:40;;;;;;;12.77;8.30;;;-1.60;99.90;;;;;;5112640;28;20424;-75
2021/12/21 14:16:12;;;;;;;16.30;9.20;;;-1.70;99.90;;;;;;5113847;28;20838;-75
2021/12/21 14:18:44;;;;;;;14.43;8.40;;;-1.60;99.90;;;;;;5112561;28;20413;-75
2021/12/21 14:21:15;;;;;;;12.20;8.37;;;-1.60;99.90;;;;;;5113629;28;20400;-75
2021/12/21 14:23:45;;;;;;;14.10;8.93;;;-1.60;99.90;;;;;;5114155;28;20382;-76
2021/12/21 14:26:27;;;;;;;14.77;9.23;;;-1.70;99.90;;;;;;5112369;28;20973;-76
2021/12/21 14:29:12;;;;;;;13.57;9.17;;;-1.70;99.90;;;;;;5112894;28;20416;-76
2021/12/21 14:31:51;;;;;;;14.53;9.13;;;-1.80;99.90;;;;;;5114133;28;20396;-75
2021/12/21 14:34:26;;;;;;;13.57;8.50;;;-1.90;99.90;;;;;;5114136;28;20455;-75
2021/12/21 14:36:52;;;;;;;12.13;8.13;;;-1.90;99.90;;;;;;5113573;28;20514;-75
2021/12/21 14:39:20;;;;;;;12.30;7.60;;;-1.90;99.90;;;;;;5113562;28;20441;-76
2021/12/21 14:41:51;;;;;;;15.40;8.47;;;-1.90;99.90;;;;;;5112090;28;20421;-75
2021/12/21 14:44:21;;;;;;;13.17;7.80;;;-1.90;99.90;;;;;;5113595;28;20446;-75
2021/12/21 14:47:05;;;;;;;11.70;8.00;;;-2.00;99.90;;;;;;5112190;28;20559;-75
2021/12/21 14:50:04;;;;;;;13.63;7.97;;;-1.90;99.90;;;;;;5113447;28;20393;-75
2021/12/21 14:52:40;;;;;;;18.50;9.33;;;-1.90;99.90;;;;;;5109141;28;20416;-76
2021/12/21 14:55:07;;;;;;;14.13;8.67;;;-1.90;99.90;;;;;;5115618;28;20408;-75
2021/12/21 14:57:43;;;;;;;11.93;7.37;;;-1.90;99.90;;;;;;5115258;28;20465;-75
2021/12/21 15:00:18;;;;;;;14.33;8.20;;;-1.90;99.90;;;;;;5116206;28;20412;-75
2021/12/21 15:05:18;;;;;;;16.10;7.77;;;-1.90;99.90;;;;;;5116616;28;20413;-75
2021/12/21 15:07:46;;;;;;;13.47;8.17;;;-1.90;99.90;;;;;;5116895;28;20866;-75
2021/12/21 15:10:15;;;;;;;11.67;7.47;;;-1.90;99.90;;;;;;5115459;28;20466;-75
2021/12/21 15:12:40;;;;;;;12.07;8.33;;;-1.90;99.90;;;;;;5116762;28;20405;-75
2021/12/21 15:15:07;;;;;;;15.03;10.17;;;-1.90;99.90;;;;;;5115401;28;20768;-75
2021/12/21 15:17:33;;;;;;;14.50;6.80;;;-1.90;99.90;;;;;;5115540;28;20175;-75
2021/12/21 15:19:59;;;;;;;11.87;7.83;;;-1.90;99.90;;;;;;5116911;28;20754;-75
2021/12/21 15:22:24;;;;;;;15.83;10.07;;;-2.00;99.90;;;;;;5116569;28;20167;-75
2021/12/21 15:24:50;;;;;;;13.50;7.60;;;-2.00;99.90;;;;;;5114480;28;20179;-75
2021/12/21 15:27:16;;;;;;;18.13;9.87;;;-2.00;99.90;;;;;;5115323;28;20701;-75
2021/12/21 15:29:42;;;;;;;14.23;7.93;;;-2.00;99.90;;;;;;5115502;28;20178;-75
2021/12/21 15:32:12;;;;;;;18.23;10.03;;;-2.00;99.90;;;;;;5116728;28;20537;-75
2021/12/21 15:34:39;;;;;;;12.87;8.47;;;-2.00;99.90;;;;;;5116668;28;20204;-75
2021/12/21 15:37:04;;;;;;;13.70;8.90;;;-1.90;99.90;;;;;;5116577;28;20482;-75
2021/12/21 15:39:30;;;;;;;16.07;9.87;;;-1.80;99.90;;;;;;5115247;28;20416;-75
2021/12/21 15:41:57;;;;;;;17.03;10.57;;;-1.80;99.90;;;;;;5115140;28;20175;-75
2021/12/21 15:44:29;;;;;;;13.77;8.00;;;-1.80;99.90;;;;;;5115274;28;20178;-75
2021/12/21 15:46:58;;;;;;;18.37;8.20;;;-1.80;99.90;;;;;;5114942;28;20540;-75
